Ana Sayfa
METAR-TAF:

METAR-TAF

Havaalanları :

Alma, Michigan, Amerika Birleşik Devletleri

Enlem: 43-19-19N, Boylam: 084-41-16W, yükseklik: 229 m

Güncel hava durumu gözlemi

Rapor saat 13:55 UTC de 20 dakika önce yapıldı.
Rüzgar güney/güneydoğudan 7 kt
Sıcaklık 8°C
Nem 93%
Basınç 1001 hPa
Görüş mesafesi: 3.2 km
500 ft yükseklikte çok bulutlu
bilinmiyor

METAR: KAMN 091355Z AUTO 15007KT 2SM UP OVC005 08/07 A2957 RMK AO2 T00750066

Saat: 09:15 (14:15 UTC)


TAF: eksik

4.000'den fazla havaalanı için hava durumu gözlemleri ve tahminleri (METAR ve TAF raporları).

Kullanılabilir istasyonlar harita üzerinde sarı ve kırmızı noktalarla gösterilir.

İstasyonun adını görmek için fareyi noktanın üzerinde gezdirin.

Sonrasında hava gözlem ve tahminlerini görmek için tıklayın.

Haritayı değiştirmek için: yaklaştırmak için siyah artı işaretli yeşil düğmeye ve uzaklaştırmak için de eksi işaretli düğmeye hızla tıklayın; bitişik haritalar için yeşil okları kullanın.


METAR-TAF: